Time;durP1;ratioP1;P1;durP2;ratioP2;P2;SDS_P1;SDS_P2;PMS_P1;PMS_P2;Temp;Humidity;BMP_temperature;BMP_pressure;BME280_temperature;BME280_humidity;BME280_pressure;Samples;Min_cycle;Max_cycle;Signal;HPM_P1;HPM_P2
2022/10/21 00:00:17;;;;;;;0.20;0.20;;;9.50;99.90;;;;;;5006650;28;20523;-90
2022/10/21 00:02:43;;;;;;;0.20;0.20;;;9.50;99.90;;;;;;5013366;28;20238;-88
2022/10/21 00:05:09;;;;;;;0.20;0.20;;;9.50;99.90;;;;;;5014391;28;20430;-88
2022/10/21 00:07:35;;;;;;;0.30;0.30;;;9.40;99.90;;;;;;5003889;28;20186;-88
2022/10/21 00:10:00;;;;;;;0.20;0.20;;;9.40;99.90;;;;;;5010686;28;20636;-90
2022/10/21 00:12:28;;;;;;;0.20;0.20;;;9.30;99.90;;;;;;4994015;28;20201;-90
2022/10/21 00:14:53;;;;;;;0.20;0.20;;;9.40;99.90;;;;;;5017373;28;20188;-90
2022/10/21 00:17:19;;;;;;;0.20;0.20;;;9.40;99.90;;;;;;5016607;28;20551;-89
2022/10/21 00:19:44;;;;;;;0.30;0.30;;;9.30;99.90;;;;;;5010686;28;20195;-89
2022/10/21 00:22:10;;;;;;;0.20;0.20;;;9.30;99.90;;;;;;4994374;28;20322;-89
2022/10/21 00:24:35;;;;;;;0.30;0.30;;;9.30;99.90;;;;;;5004709;28;20926;-88
2022/10/21 00:27:01;;;;;;;0.20;0.20;;;9.30;99.90;;;;;;5011235;28;20196;-89
2022/10/21 00:29:27;;;;;;;0.20;0.20;;;9.20;99.90;;;;;;5015950;28;20659;-90
2022/10/21 00:31:53;;;;;;;0.20;0.20;;;9.20;99.90;;;;;;5006554;28;20545;-90
2022/10/21 00:34:20;;;;;;;0.30;0.30;;;9.20;99.90;;;;;;5003509;28;20566;-86
2022/10/21 00:36:46;;;;;;;0.30;0.30;;;9.10;99.90;;;;;;5014151;28;20498;-89
2022/10/21 00:39:11;;;;;;;0.20;0.20;;;9.10;99.90;;;;;;5015600;28;20442;-89
2022/10/21 00:41:37;;;;;;;0.27;0.27;;;9.10;99.90;;;;;;5007976;28;20189;-89
2022/10/21 00:44:09;;;;;;;0.30;0.30;;;9.10;99.90;;;;;;5000961;28;20540;-87
2022/10/21 00:46:45;;;;;;;0.30;0.30;;;9.10;99.90;;;;;;5004669;28;20647;-90
2022/10/21 00:49:23;;;;;;;0.20;0.20;;;9.10;99.90;;;;;;5011300;28;20447;-90
2022/10/21 00:51:54;;;;;;;0.20;0.20;;;9.00;99.90;;;;;;4993347;28;20458;-88
2022/10/21 00:54:22;;;;;;;0.30;0.30;;;9.00;99.90;;;;;;5013185;28;20446;-90
2022/10/21 00:56:49;;;;;;;0.30;0.30;;;9.00;99.90;;;;;;5005501;28;20924;-89
2022/10/21 00:59:15;;;;;;;0.20;0.20;;;9.00;99.90;;;;;;5004842;28;20462;-90
2022/10/21 01:01:42;;;;;;;0.30;0.30;;;8.90;99.90;;;;;;5003214;28;20535;-87
2022/10/21 01:04:07;;;;;;;0.20;0.20;;;9.00;99.90;;;;;;5009497;28;20442;-89
2022/10/21 01:06:33;;;;;;;0.30;0.30;;;9.00;99.90;;;;;;5000459;28;20451;-90
2022/10/21 01:09:01;;;;;;;0.20;0.20;;;9.00;99.90;;;;;;5013032;28;20195;-86
2022/10/21 01:11:29;;;;;;;0.30;0.30;;;8.90;99.90;;;;;;5012820;28;20455;-89
2022/10/21 01:14:00;;;;;;;0.20;0.20;;;8.90;99.90;;;;;;4995678;28;20432;-90
2022/10/21 01:16:48;;;;;;;0.20;0.20;;;8.90;99.90;;;;;;5003533;28;20486;-90
2022/10/21 01:19:29;;;;;;;0.30;0.30;;;8.90;99.90;;;;;;5009497;28;20439;-89
2022/10/21 01:22:13;;;;;;;0.30;0.30;;;8.90;99.90;;;;;;5008100;28;20451;-89
2022/10/21 01:24:53;;;;;;;0.20;0.20;;;8.90;99.90;;;;;;5006310;28;20443;-88
2022/10/21 01:27:52;;;;;;;0.20;0.20;;;8.90;99.90;;;;;;4992657;28;20914;-89
2022/10/21 01:30:52;;;;;;;0.30;0.30;;;8.80;99.90;;;;;;4994648;28;20447;-88
2022/10/21 01:33:33;;;;;;;0.20;0.20;;;8.80;99.90;;;;;;4992056;28;20532;-88
2022/10/21 01:36:04;;;;;;;0.30;0.30;;;8.80;99.90;;;;;;5004952;28;20495;-88
2022/10/21 01:38:53;;;;;;;0.30;0.30;;;8.80;99.90;;;;;;4989118;28;20448;-90
2022/10/21 01:41:29;;;;;;;0.20;0.20;;;8.80;99.90;;;;;;4985573;28;20924;-88
2022/10/21 01:44:03;;;;;;;0.20;0.20;;;8.80;99.90;;;;;;5003032;28;20459;-89
2022/10/21 01:46:41;;;;;;;0.30;0.30;;;8.80;99.90;;;;;;4987949;28;20444;-88
2022/10/21 01:49:14;;;;;;;0.20;0.20;;;8.80;99.90;;;;;;5010552;28;20439;-88
2022/10/21 01:51:41;;;;;;;0.30;0.30;;;8.80;99.90;;;;;;5004839;28;20447;-88
2022/10/21 01:54:13;;;;;;;0.20;0.20;;;8.80;99.90;;;;;;5007801;28;20443;-88
2022/10/21 01:56:41;;;;;;;0.30;0.30;;;8.70;99.90;;;;;;5000714;28;20495;-89
2022/10/21 01:59:10;;;;;;;0.30;0.30;;;8.70;99.90;;;;;;5008845;28;20447;-88
2022/10/21 02:01:37;;;;;;;0.30;0.30;;;8.70;99.90;;;;;;4992112;28;20546;-87
2022/10/21 02:04:06;;;;;;;0.20;0.20;;;8.70;99.90;;;;;;5001851;28;20533;-88
2022/10/21 02:06:31;;;;;;;0.30;0.30;;;8.70;99.90;;;;;;5000789;28;20503;-88
2022/10/21 02:08:57;;;;;;;0.30;0.30;;;8.70;99.90;;;;;;5006834;28;20931;-88
2022/10/21 02:11:23;;;;;;;0.30;0.30;;;8.70;99.90;;;;;;5005180;28;20200;-90
2022/10/21 02:14:11;;;;;;;0.30;0.30;;;8.70;99.90;;;;;;5005211;28;20193;-88
2022/10/21 02:16:38;;;;;;;0.30;0.30;;;8.70;99.90;;;;;;5003201;28;20478;-88
2022/10/21 02:19:12;;;;;;;0.30;0.30;;;8.60;99.90;;;;;;5005851;28;20533;-87
2022/10/21 02:21:38;;;;;;;0.30;0.30;;;8.60;99.90;;;;;;4990395;28;20447;-89
2022/10/21 02:24:26;;;;;;;0.20;0.20;;;8.60;99.90;;;;;;5002645;28;20435;-87
2022/10/21 02:26:51;;;;;;;0.27;0.27;;;8.60;99.90;;;;;;4985149;28;20283;-87
2022/10/21 02:29:21;;;;;;;0.30;0.30;;;8.60;99.90;;;;;;4984137;28;20546;-88
2022/10/21 02:31:56;;;;;;;0.20;0.20;;;8.60;99.90;;;;;;5004215;28;20218;-88
2022/10/21 02:34:54;;;;;;;0.20;0.20;;;8.50;99.90;;;;;;5003446;28;20439;-87
2022/10/21 02:37:30;;;;;;;0.20;0.20;;;8.50;99.90;;;;;;4986549;28;20563;-87
2022/10/21 02:40:03;;;;;;;0.30;0.30;;;8.50;99.90;;;;;;4983981;28;20977;-89
2022/10/21 02:42:34;;;;;;;0.20;0.20;;;8.50;99.90;;;;;;5004798;28;20624;-88
2022/10/21 02:45:01;;;;;;;0.30;0.30;;;8.50;99.90;;;;;;4994129;28;20462;-87
2022/10/21 02:47:28;;;;;;;0.30;0.30;;;8.50;99.90;;;;;;5006343;28;20451;-88
2022/10/21 02:49:53;;;;;;;0.20;0.20;;;8.50;99.90;;;;;;4991166;28;21180;-88
2022/10/21 02:52:19;;;;;;;0.20;0.20;;;8.50;99.90;;;;;;5003721;28;20534;-86
2022/10/21 02:54:44;;;;;;;0.30;0.30;;;8.60;99.90;;;;;;5006983;28;20205;-88
2022/10/21 02:57:10;;;;;;;0.30;0.30;;;8.50;99.90;;;;;;5008527;28;20692;-88
2022/10/21 02:59:35;;;;;;;0.30;0.30;;;8.60;99.90;;;;;;4989485;28;20221;-88
2022/10/21 03:02:01;;;;;;;0.30;0.30;;;8.60;99.90;;;;;;4993137;28;20280;-88
2022/10/21 03:04:26;;;;;;;0.20;0.20;;;8.60;99.90;;;;;;4989646;28;20188;-86
2022/10/21 03:06:52;;;;;;;0.30;0.30;;;8.70;99.90;;;;;;4996845;28;20209;-87
2022/10/21 03:09:17;;;;;;;0.30;0.30;;;8.70;99.90;;;;;;4981792;28;20200;-87
2022/10/21 03:11:43;;;;;;;0.30;0.30;;;8.70;99.90;;;;;;5001053;28;20216;-88
2022/10/21 03:14:08;;;;;;;0.20;0.20;;;8.80;99.90;;;;;;4990657;28;20208;-87
2022/10/21 03:16:34;;;;;;;0.30;0.30;;;8.80;99.90;;;;;;5005174;28;20254;-87
2022/10/21 03:18:59;;;;;;;0.20;0.20;;;8.80;99.90;;;;;;4982811;28;20207;-88
2022/10/21 03:21:25;;;;;;;0.27;0.27;;;8.80;99.90;;;;;;4989411;28;20216;-89
2022/10/21 03:23:50;;;;;;;0.20;0.20;;;8.80;99.90;;;;;;4996056;28;20684;-88
2022/10/21 03:26:16;;;;;;;0.20;0.20;;;8.90;99.90;;;;;;5002654;28;20200;-89
2022/10/21 03:28:41;;;;;;;0.30;0.30;;;8.90;99.90;;;;;;4993997;28;20204;-88
2022/10/21 03:31:07;;;;;;;0.20;0.20;;;8.90;99.90;;;;;;4996574;28;20184;-88
2022/10/21 03:33:32;;;;;;;0.20;0.20;;;8.90;99.90;;;;;;5008179;28;20303;-88
2022/10/21 03:35:58;;;;;;;0.20;0.20;;;9.00;99.90;;;;;;5003319;28;20551;-88
2022/10/21 03:38:23;;;;;;;0.20;0.20;;;9.00;99.90;;;;;;5006804;28;20631;-88
2022/10/21 03:40:50;;;;;;;0.30;0.30;;;8.90;99.90;;;;;;5006865;28;20235;-88
2022/10/21 03:43:15;;;;;;;0.30;0.30;;;9.00;99.90;;;;;;5000925;28;20254;-87
2022/10/21 03:45:41;;;;;;;0.23;0.23;;;9.00;99.90;;;;;;5006541;28;20443;-87
2022/10/21 03:48:06;;;;;;;0.20;0.20;;;9.00;99.90;;;;;;4995198;28;20192;-88
2022/10/21 03:50:32;;;;;;;0.20;0.20;;;9.00;99.90;;;;;;5000670;28;20208;-87
2022/10/21 03:52:58;;;;;;;0.20;0.20;;;9.00;99.90;;;;;;5000663;28;20196;-87
2022/10/21 03:55:24;;;;;;;0.20;0.20;;;9.00;99.90;;;;;;5001566;28;20215;-86
2022/10/21 03:57:51;;;;;;;0.20;0.20;;;9.10;99.90;;;;;;5004152;28;20455;-88
2022/10/21 04:00:16;;;;;;;0.20;0.20;;;9.10;99.90;;;;;;4983332;28;20184;-87
2022/10/21 04:02:42;;;;;;;0.20;0.20;;;9.10;99.90;;;;;;5006438;28;21339;-86
2022/10/21 04:05:08;;;;;;;0.20;0.20;;;9.10;99.90;;;;;;5013124;28;20196;-86
2022/10/21 04:07:34;;;;;;;0.30;0.30;;;9.10;99.90;;;;;;5002487;28;20184;-86
2022/10/21 04:09:59;;;;;;;0.20;0.20;;;9.10;99.90;;;;;;4993647;28;20451;-87
2022/10/21 04:12:24;;;;;;;0.30;0.30;;;9.20;99.90;;;;;;5004706;28;20535;-87
2022/10/21 04:14:50;;;;;;;0.20;0.20;;;9.20;99.90;;;;;;4994917;28;20203;-87
2022/10/21 04:17:15;;;;;;;0.20;0.20;;;9.10;99.90;;;;;;5003325;28;20266;-86
2022/10/21 04:19:41;;;;;;;0.20;0.20;;;9.20;99.90;;;;;;4998122;28;20227;-86
2022/10/21 04:22:06;;;;;;;0.20;0.20;;;9.20;99.90;;;;;;4995731;28;20197;-87
2022/10/21 04:24:32;;;;;;;0.20;0.20;;;9.20;99.90;;;;;;5008415;28;20195;-85
2022/10/21 04:26:57;;;;;;;0.20;0.20;;;9.20;99.90;;;;;;4999035;28;20260;-87
2022/10/21 04:29:23;;;;;;;0.20;0.20;;;9.20;99.90;;;;;;4998836;28;20615;-86
2022/10/21 04:31:48;;;;;;;0.20;0.20;;;9.20;99.90;;;;;;5006093;28;20262;-86
2022/10/21 04:34:14;;;;;;;0.20;0.20;;;9.30;99.90;;;;;;4987177;28;20223;-88
2022/10/21 04:36:39;;;;;;;0.20;0.20;;;9.30;99.90;;;;;;4987973;28;20251;-87
2022/10/21 04:39:05;;;;;;;0.20;0.20;;;9.20;99.90;;;;;;4989705;28;20181;-86
2022/10/21 04:41:30;;;;;;;0.20;0.20;;;9.30;99.90;;;;;;4985981;28;20326;-87
2022/10/21 04:43:56;;;;;;;0.20;0.20;;;9.20;99.90;;;;;;4992709;28;20190;-87
2022/10/21 04:46:21;;;;;;;0.20;0.20;;;9.20;99.90;;;;;;5001795;28;20193;-86
2022/10/21 04:48:47;;;;;;;0.20;0.20;;;9.20;99.90;;;;;;5002642;28;20200;-88
2022/10/21 04:51:12;;;;;;;0.20;0.20;;;9.20;99.90;;;;;;5005726;28;20192;-87
2022/10/21 04:53:38;;;;;;;0.20;0.20;;;9.20;99.90;;;;;;5002065;28;20193;-87
2022/10/21 04:56:04;;;;;;;0.20;0.20;;;9.20;99.90;;;;;;5007515;28;20224;-86
2022/10/21 04:58:30;;;;;;;0.20;0.20;;;9.30;99.90;;;;;;4991371;28;20234;-87
2022/10/21 05:00:55;;;;;;;0.20;0.20;;;9.30;99.90;;;;;;5006165;28;20455;-86
2022/10/21 05:03:21;;;;;;;0.20;0.20;;;9.30;99.90;;;;;;4987672;28;20192;-87
2022/10/21 05:05:53;;;;;;;0.20;0.20;;;9.30;99.90;;;;;;4984315;28;20192;-87
2022/10/21 05:08:20;;;;;;;0.20;0.20;;;9.30;99.90;;;;;;5006606;28;20243;-86
2022/10/21 05:10:46;;;;;;;0.20;0.20;;;9.30;99.90;;;;;;5005861;28;20459;-86
2022/10/21 05:13:12;;;;;;;0.20;0.20;;;9.30;99.90;;;;;;5016395;28;20454;-87
2022/10/21 05:15:37;;;;;;;0.20;0.20;;;9.40;99.90;;;;;;4991730;28;20251;-86
2022/10/21 05:18:03;;;;;;;0.20;0.20;;;9.40;99.90;;;;;;5004828;28;20256;-87
2022/10/21 05:20:29;;;;;;;0.20;0.20;;;9.40;99.90;;;;;;5001268;28;20591;-87
2022/10/21 05:22:54;;;;;;;0.20;0.20;;;9.40;99.90;;;;;;4989066;28;20675;-88
2022/10/21 05:25:20;;;;;;;0.20;0.20;;;9.40;99.90;;;;;;5000708;28;20181;-89
2022/10/21 05:27:46;;;;;;;0.20;0.20;;;9.40;99.90;;;;;;4997942;28;20196;-87
2022/10/21 05:30:12;;;;;;;0.20;0.20;;;9.30;99.90;;;;;;5003887;28;20216;-90
2022/10/21 05:32:39;;;;;;;0.20;0.20;;;9.40;99.90;;;;;;5011519;28;20291;-88
2022/10/21 05:35:05;;;;;;;0.20;0.20;;;9.30;99.90;;;;;;5011110;28;20451;-88
2022/10/21 05:37:30;;;;;;;0.20;0.20;;;9.30;99.90;;;;;;5003362;28;20899;-89
2022/10/21 05:39:56;;;;;;;0.20;0.20;;;9.40;99.90;;;;;;5008865;28;20443;-88
2022/10/21 05:42:21;;;;;;;0.20;0.20;;;9.30;99.90;;;;;;5012131;28;20204;-86
2022/10/21 05:44:47;;;;;;;0.20;0.20;;;9.30;99.90;;;;;;5009361;28;20271;-86
2022/10/21 05:47:13;;;;;;;0.30;0.30;;;9.30;99.90;;;;;;5012090;28;20320;-86
2022/10/21 05:49:38;;;;;;;0.20;0.20;;;9.30;99.90;;;;;;5012927;28;20177;-86
2022/10/21 05:52:04;;;;;;;0.20;0.20;;;9.40;99.90;;;;;;5008474;28;21015;-88
2022/10/21 05:54:29;;;;;;;0.20;0.20;;;9.40;99.90;;;;;;5009561;28;20269;-88
2022/10/21 05:56:56;;;;;;;0.20;0.20;;;9.40;99.90;;;;;;5006517;28;20310;-89
2022/10/21 05:59:21;;;;;;;0.30;0.30;;;9.40;99.90;;;;;;5007739;28;20219;-87
2022/10/21 06:01:47;;;;;;;0.20;0.20;;;9.40;99.90;;;;;;5009618;28;21242;-88
2022/10/21 06:04:12;;;;;;;0.20;0.20;;;9.40;99.90;;;;;;5006735;28;20189;-89
2022/10/21 06:06:38;;;;;;;0.20;0.20;;;9.40;99.90;;;;;;5008036;28;20314;-89
2022/10/21 06:09:04;;;;;;;0.20;0.20;;;9.30;99.90;;;;;;5011161;28;20314;-89
2022/10/21 06:11:29;;;;;;;0.20;0.20;;;9.30;99.90;;;;;;5004252;28;20203;-89
2022/10/21 06:13:55;;;;;;;0.20;0.20;;;9.30;99.90;;;;;;5008769;28;20283;-90
2022/10/21 06:16:21;;;;;;;0.20;0.20;;;9.30;99.90;;;;;;5007793;28;20278;-89
2022/10/21 06:18:46;;;;;;;0.20;0.20;;;9.30;99.90;;;;;;4991455;28;20215;-88
2022/10/21 06:21:12;;;;;;;0.20;0.20;;;9.30;99.90;;;;;;5002979;28;21022;-88
2022/10/21 06:23:37;;;;;;;0.20;0.20;;;9.30;99.90;;;;;;5012171;28;20196;-88
2022/10/21 06:26:08;;;;;;;0.20;0.20;;;9.30;99.90;;;;;;5007576;28;20242;-88
2022/10/21 06:28:35;;;;;;;0.20;0.20;;;9.30;99.90;;;;;;5006722;28;20191;-90
2022/10/21 06:31:02;;;;;;;0.20;0.20;;;9.30;99.90;;;;;;5000716;28;20439;-88
2022/10/21 06:33:27;;;;;;;0.20;0.20;;;9.40;99.90;;;;;;4989092;28;20475;-89
2022/10/21 06:35:54;;;;;;;0.20;0.20;;;9.40;99.90;;;;;;5006548;28;20958;-88
2022/10/21 06:38:19;;;;;;;0.20;0.20;;;9.40;99.90;;;;;;5000637;28;20232;-88
2022/10/21 06:40:47;;;;;;;0.20;0.20;;;9.40;99.90;;;;;;4985873;28;20462;-89
2022/10/21 06:43:13;;;;;;;0.20;0.20;;;9.40;99.90;;;;;;5009759;28;20195;-90
2022/10/21 06:45:38;;;;;;;0.20;0.20;;;9.40;99.90;;;;;;4991215;28;20831;-92
2022/10/21 06:48:04;;;;;;;0.20;0.20;;;9.40;99.90;;;;;;4985395;28;20192;-91
2022/10/21 06:50:30;;;;;;;0.20;0.20;;;9.40;99.90;;;;;;5008645;28;20238;-90
2022/10/21 06:52:55;;;;;;;0.20;0.20;;;9.50;99.90;;;;;;5005678;28;20200;-92
2022/10/21 06:55:21;;;;;;;0.20;0.20;;;9.50;99.90;;;;;;5005008;28;20542;-90
2022/10/21 06:57:46;;;;;;;0.20;0.20;;;9.40;99.90;;;;;;5012534;28;20220;-89
2022/10/21 07:00:12;;;;;;;0.20;0.20;;;9.50;99.90;;;;;;4998173;28;20247;-90
2022/10/21 07:02:38;;;;;;;0.10;0.10;;;9.50;99.90;;;;;;5013525;28;20196;-91
2022/10/21 07:05:05;;;;;;;0.20;0.20;;;9.50;99.90;;;;;;4993788;28;20465;-90
2022/10/21 07:07:30;;;;;;;0.20;0.20;;;9.50;99.90;;;;;;4996580;28;20668;-91
2022/10/21 07:09:56;;;;;;;0.20;0.20;;;9.40;99.90;;;;;;4983253;28;20467;-88
2022/10/21 07:12:23;;;;;;;0.20;0.20;;;9.50;99.90;;;;;;5006806;28;20720;-90
2022/10/21 07:14:49;;;;;;;0.20;0.20;;;9.50;99.90;;;;;;5000138;28;20446;-90
2022/10/21 07:17:15;;;;;;;0.20;0.20;;;9.50;99.90;;;;;;5005300;28;20475;-90
2022/10/21 07:19:41;;;;;;;0.20;0.20;;;9.60;99.90;;;;;;4995081;28;20179;-89
2022/10/21 07:22:07;;;;;;;0.20;0.20;;;9.60;99.90;;;;;;5007248;28;20447;-89
2022/10/21 07:24:32;;;;;;;0.20;0.20;;;9.60;99.90;;;;;;5006700;28;20234;-88
2022/10/21 07:26:58;;;;;;;0.20;0.20;;;9.70;99.90;;;;;;5009139;28;20203;-90
2022/10/21 07:29:25;;;;;;;0.20;0.20;;;9.70;99.90;;;;;;4997632;28;20218;-88
2022/10/21 07:31:50;;;;;;;0.20;0.20;;;9.80;99.90;;;;;;4993784;28;20192;-91
2022/10/21 07:34:16;;;;;;;0.20;0.20;;;9.80;99.90;;;;;;5005027;28;20923;-92
2022/10/21 07:36:51;;;;;;;0.20;0.20;;;9.80;99.90;;;;;;4991372;28;20240;-92
2022/10/21 07:39:20;;;;;;;0.20;0.20;;;9.80;99.90;;;;;;4981708;28;20180;-88
2022/10/21 07:41:54;;;;;;;0.20;0.20;;;9.80;99.90;;;;;;5009916;28;20522;-89
2022/10/21 07:44:22;;;;;;;0.20;0.20;;;9.80;99.90;;;;;;5001629;28;20444;-89
2022/10/21 07:46:48;;;;;;;0.20;0.20;;;9.90;99.90;;;;;;4988018;28;21098;-90
2022/10/21 07:49:15;;;;;;;0.20;0.20;;;9.80;99.90;;;;;;4998811;28;20550;-90
2022/10/21 07:51:42;;;;;;;0.20;0.20;;;9.90;99.90;;;;;;5005318;28;20562;-89
2022/10/21 07:54:08;;;;;;;0.20;0.20;;;9.90;99.90;;;;;;4988898;28;20454;-90
2022/10/21 07:56:43;;;;;;;0.20;0.20;;;10.00;99.90;;;;;;5010512;28;20487;-90
2022/10/21 07:59:09;;;;;;;0.20;0.20;;;10.00;99.90;;;;;;5007053;28;20495;-89
2022/10/21 08:01:35;;;;;;;0.20;0.20;;;10.10;99.90;;;;;;4992556;28;20467;-90
2022/10/21 08:04:01;;;;;;;0.20;0.20;;;10.10;99.90;;;;;;4998815;28;22070;-86
2022/10/21 08:06:27;;;;;;;0.20;0.20;;;10.10;99.90;;;;;;5009686;28;20248;-88
2022/10/21 08:08:56;;;;;;;0.20;0.20;;;10.10;99.90;;;;;;5001544;28;20447;-90
2022/10/21 08:11:29;;;;;;;0.20;0.20;;;10.20;99.90;;;;;;5003240;28;20432;-89
2022/10/21 08:13:56;;;;;;;0.20;0.20;;;10.20;99.90;;;;;;5010502;28;20458;-90
2022/10/21 08:16:22;;;;;;;0.20;0.20;;;10.20;99.90;;;;;;4999010;28;20467;-91
2022/10/21 08:18:48;;;;;;;0.10;0.10;;;10.20;99.90;;;;;;5009601;28;20482;-91
2022/10/21 08:21:14;;;;;;;0.20;0.20;;;10.20;99.90;;;;;;4995254;28;20622;-89
2022/10/21 08:23:40;;;;;;;0.20;0.20;;;10.20;99.90;;;;;;5012313;28;20471;-91
2022/10/21 08:26:10;;;;;;;0.20;0.20;;;10.20;99.90;;;;;;5016912;28;20585;-90
2022/10/21 08:28:35;;;;;;;0.20;0.20;;;10.20;99.90;;;;;;5012792;28;20454;-92
2022/10/21 08:31:03;;;;;;;0.20;0.20;;;10.30;99.90;;;;;;4999085;28;20452;-90
2022/10/21 08:33:29;;;;;;;0.20;0.20;;;10.30;99.90;;;;;;4996840;28;20645;-91
2022/10/21 08:35:54;;;;;;;0.20;0.20;;;10.30;99.90;;;;;;5011659;28;20570;-92
2022/10/21 08:38:20;;;;;;;0.10;0.10;;;10.30;99.90;;;;;;5007313;28;20688;-92
2022/10/21 08:40:47;;;;;;;0.20;0.20;;;10.30;99.90;;;;;;4993026;28;20227;-91
2022/10/21 08:43:24;;;;;;;0.20;0.20;;;10.30;99.90;;;;;;5004777;28;20249;-90
2022/10/21 08:46:14;;;;;;;0.20;0.20;;;10.40;99.90;;;;;;5016263;28;20422;-91
2022/10/21 08:48:50;;;;;;;0.20;0.20;;;10.40;99.90;;;;;;5003717;28;20446;-88
2022/10/21 08:51:39;;;;;;;0.20;0.20;;;10.30;99.90;;;;;;5011788;28;20441;-89
2022/10/21 08:54:11;;;;;;;0.20;0.20;;;10.40;99.90;;;;;;5010932;28;20447;-90
2022/10/21 08:56:36;;;;;;;0.20;0.20;;;10.40;99.90;;;;;;5002290;28;20537;-88
2022/10/21 08:59:02;;;;;;;0.20;0.20;;;10.30;99.90;;;;;;5011540;28;22182;-87
2022/10/21 09:01:54;;;;;;;0.20;0.20;;;10.30;99.90;;;;;;5008433;28;20196;-88
2022/10/21 09:04:59;;;;;;;0.20;0.20;;;10.30;99.90;;;;;;4999946;28;20207;-86
2022/10/21 09:07:43;;;;;;;0.20;0.20;;;10.40;99.90;;;;;;4998503;28;20512;-88
2022/10/21 09:10:15;;;;;;;0.20;0.20;;;10.40;99.90;;;;;;5002911;28;20447;-87
2022/10/21 09:13:04;;;;;;;0.20;0.20;;;10.50;99.90;;;;;;5004089;28;20533;-89
2022/10/21 09:15:56;;;;;;;0.10;0.10;;;10.50;99.90;;;;;;5002489;28;20452;-90
2022/10/21 09:18:44;;;;;;;0.10;0.10;;;10.60;99.90;;;;;;5004336;28;20627;-89
2022/10/21 09:21:26;;;;;;;0.20;0.20;;;10.60;99.90;;;;;;5014130;28;20441;-90
2022/10/21 09:24:10;;;;;;;0.20;0.20;;;10.70;99.90;;;;;;5006100;28;20447;-89
2022/10/21 09:26:41;;;;;;;0.20;0.20;;;10.60;99.90;;;;;;5009361;28;20454;-90
2022/10/21 09:29:36;;;;;;;0.13;0.13;;;10.60;99.90;;;;;;5000891;28;20520;-90
2022/10/21 09:32:27;;;;;;;0.20;0.20;;;10.70;99.90;;;;;;5006788;28;20440;-92
2022/10/21 09:35:01;;;;;;;0.20;0.20;;;10.80;99.90;;;;;;5012119;28;20493;-92
2022/10/21 09:37:41;;;;;;;0.10;0.10;;;10.80;99.90;;;;;;5004453;28;20978;-95
2022/10/21 09:40:25;;;;;;;0.20;0.20;;;10.90;99.90;;;;;;5000801;28;20547;-91
2022/10/21 09:42:57;;;;;;;0.20;0.20;;;11.00;99.90;;;;;;5013558;28;20572;-92
2022/10/21 09:45:37;;;;;;;0.20;0.20;;;11.10;99.90;;;;;;4996026;28;20890;-92
2022/10/21 09:48:19;;;;;;;0.13;0.13;;;11.10;99.90;;;;;;5012797;28;20454;-91
2022/10/21 09:51:00;;;;;;;0.20;0.20;;;11.20;99.90;;;;;;5008757;28;20963;-91
2022/10/21 09:53:37;;;;;;;0.20;0.20;;;11.20;99.90;;;;;;5009153;28;20431;-90
2022/10/21 09:56:23;;;;;;;0.10;0.10;;;11.30;99.90;;;;;;4994107;28;20509;-89
2022/10/21 09:59:10;;;;;;;0.20;0.20;;;11.30;99.90;;;;;;4992362;28;20439;-90
2022/10/21 10:01:37;;;;;;;0.20;0.20;;;11.20;99.90;;;;;;5006008;28;20977;-93
2022/10/21 10:04:20;;;;;;;0.20;0.20;;;11.40;99.90;;;;;;5010500;28;20450;-88
2022/10/21 10:06:46;;;;;;;0.20;0.20;;;11.40;99.90;;;;;;5012605;28;20463;-90
2022/10/21 10:09:26;;;;;;;0.20;0.20;;;11.50;99.90;;;;;;5009021;28;20461;-88
2022/10/21 10:12:04;;;;;;;0.17;0.17;;;11.70;99.90;;;;;;5004717;28;20188;-89
2022/10/21 10:14:39;;;;;;;0.20;0.20;;;11.70;99.90;;;;;;4992806;28;20711;-90
2022/10/21 10:17:30;;;;;;;0.20;0.20;;;11.90;99.90;;;;;;5010770;28;20509;-88
2022/10/21 10:20:18;;;;;;;0.10;0.10;;;12.00;99.90;;;;;;5008660;28;20461;-92
2022/10/21 10:22:59;;;;;;;0.20;0.20;;;12.10;99.90;;;;;;5009711;28;20430;-90
2022/10/21 10:25:30;;;;;;;0.10;0.10;;;12.20;99.90;;;;;;4995857;28;20462;-88
2022/10/21 10:27:59;;;;;;;0.10;0.10;;;12.50;99.90;;;;;;4984599;28;20867;-86
2022/10/21 10:30:36;;;;;;;0.10;0.10;;;12.60;99.90;;;;;;4989775;28;20850;-88
2022/10/21 10:33:09;;;;;;;0.10;0.10;;;13.00;99.90;;;;;;4993144;28;20574;-86
2022/10/21 10:35:36;;;;;;;0.10;0.10;;;12.90;99.90;;;;;;4991569;28;20810;-87
2022/10/21 10:38:03;;;;;;;0.10;0.10;;;12.70;99.90;;;;;;5003036;28;20476;-88
2022/10/21 10:40:32;;;;;;;0.10;0.10;;;12.70;99.90;;;;;;4985819;28;20439;-87
2022/10/21 10:43:11;;;;;;;0.13;0.13;;;12.70;99.90;;;;;;4985626;28;20451;-87
2022/10/21 10:45:37;;;;;;;0.10;0.10;;;12.60;99.90;;;;;;5003071;28;20452;-87
2022/10/21 10:48:04;;;;;;;0.10;0.10;;;12.50;99.90;;;;;;5006969;28;20455;-87
2022/10/21 10:50:44;;;;;;;0.10;0.10;;;12.50;99.90;;;;;;4987780;28;20180;-88
2022/10/21 10:53:26;;;;;;;0.10;0.10;;;12.50;99.90;;;;;;5009587;28;20442;-87
2022/10/21 10:56:24;;;;;;;0.10;0.10;;;12.60;99.90;;;;;;4991574;28;20566;-87
2022/10/21 10:59:09;;;;;;;0.10;0.10;;;12.60;99.90;;;;;;4996561;28;20435;-86
2022/10/21 11:01:43;;;;;;;0.10;0.10;;;12.70;99.90;;;;;;5007490;28;20451;-89
2022/10/21 11:04:17;;;;;;;0.10;0.10;;;12.80;99.90;;;;;;5008656;28;20509;-89
2022/10/21 11:06:48;;;;;;;0.10;0.10;;;12.90;99.90;;;;;;5005367;28;20559;-88
2022/10/21 11:09:14;;;;;;;0.10;0.10;;;13.00;99.90;;;;;;4996679;28;20435;-90
2022/10/21 11:11:43;;;;;;;0.10;0.10;;;13.20;99.90;;;;;;4996978;28;20435;-90
2022/10/21 11:14:18;;;;;;;0.10;0.10;;;13.20;99.90;;;;;;4991785;28;20983;-88
2022/10/21 11:17:10;;;;;;;0.10;0.10;;;13.40;99.90;;;;;;5011806;28;20521;-88
2022/10/21 11:19:51;;;;;;;0.10;0.10;;;13.50;99.90;;;;;;5005601;28;20501;-89
2022/10/21 11:22:43;;;;;;;0.10;0.10;;;13.60;99.90;;;;;;5005935;28;20447;-91
2022/10/21 11:25:22;;;;;;;0.10;0.10;;;13.70;99.90;;;;;;5004478;28;20451;-90
2022/10/21 11:28:10;;;;;;;0.10;0.10;;;13.70;99.90;;;;;;5006593;28;20439;-87
2022/10/21 11:31:13;;;;;;;0.10;0.10;;;14.00;99.90;;;;;;5004867;28;20471;-89
2022/10/21 11:33:53;;;;;;;0.10;0.10;;;14.50;99.90;;;;;;5001267;28;20451;-92
2022/10/21 11:36:28;;;;;;;0.10;0.10;;;14.60;99.90;;;;;;4983495;28;20518;-93
2022/10/21 11:39:06;;;;;;;0.10;0.10;;;14.50;99.90;;;;;;4987079;28;20509;-91
2022/10/21 11:41:38;;;;;;;0.10;0.10;;;14.40;99.90;;;;;;5003565;28;20455;-88
2022/10/21 11:44:10;;;;;;;0.10;0.10;;;14.40;99.90;;;;;;4985233;28;20445;-92
2022/10/21 11:46:57;;;;;;;0.10;0.10;;;14.30;99.90;;;;;;5007976;28;20453;-93
2022/10/21 11:49:26;;;;;;;0.10;0.10;;;14.50;99.90;;;;;;5006818;28;20497;-93
2022/10/21 11:52:14;;;;;;;0.10;0.10;;;14.30;99.90;;;;;;5010513;28;20443;-91
2022/10/21 11:55:11;;;;;;;0.10;0.10;;;14.00;99.90;;;;;;4975696;28;20479;-93
2022/10/21 11:58:06;;;;;;;0.10;0.10;;;13.90;99.90;;;;;;5007110;28;20479;-89
2022/10/21 12:00:57;;;;;;;0.10;0.10;;;13.80;99.90;;;;;;4991196;28;20446;-89
2022/10/21 12:03:34;;;;;;;0.10;0.10;;;13.70;99.90;;;;;;4989997;28;20457;-89
2022/10/21 12:06:02;;;;;;;0.10;0.10;;;13.70;99.90;;;;;;4991571;28;20493;-88
2022/10/21 12:08:35;;;;;;;0.10;0.10;;;13.70;99.90;;;;;;5005184;28;20451;-88
2022/10/21 12:11:27;;;;;;;0.10;0.10;;;13.60;99.90;;;;;;5008554;28;20423;-90
2022/10/21 12:14:14;;;;;;;0.10;0.10;;;13.60;99.90;;;;;;5008165;28;20462;-90
2022/10/21 12:16:40;;;;;;;0.10;0.10;;;13.60;99.90;;;;;;5010336;28;20575;-89
2022/10/21 12:19:10;;;;;;;0.10;0.10;;;13.70;99.90;;;;;;4986761;28;20440;-89
2022/10/21 12:21:39;;;;;;;0.10;0.10;;;13.70;99.90;;;;;;5008620;28;20455;-89
2022/10/21 12:24:20;;;;;;;0.10;0.10;;;13.70;99.90;;;;;;5006599;28;20443;-88
2022/10/21 12:26:55;;;;;;;0.10;0.10;;;13.80;99.90;;;;;;5003113;28;20880;-91
2022/10/21 12:29:46;;;;;;;0.10;0.10;;;14.00;99.90;;;;;;5006220;28;20431;-93
2022/10/21 12:32:27;;;;;;;0.10;0.10;;;14.20;99.90;;;;;;5008227;28;20498;-94
2022/10/21 12:34:54;;;;;;;0.10;0.10;;;14.30;99.90;;;;;;5002566;28;20444;-94
2022/10/21 12:38:03;;;;;;;0.10;0.10;;;14.40;99.90;;;;;;5007795;28;20486;-96
2022/10/21 12:40:29;;;;;;;0.10;0.10;;;14.70;99.90;;;;;;4997389;28;20799;-94
2022/10/21 12:43:04;;;;;;;0.10;0.10;;;15.00;99.90;;;;;;4993505;28;20451;-94
2022/10/21 12:45:33;;;;;;;0.10;0.10;;;15.30;99.90;;;;;;5004139;28;20284;-95
2022/10/21 12:48:00;;;;;;;0.10;0.10;;;16.10;99.90;;;;;;5009475;28;20454;-92
2022/10/21 12:50:30;;;;;;;0.10;0.10;;;16.70;99.90;;;;;;4994169;28;20447;-92
2022/10/21 12:53:09;;;;;;;0.10;0.10;;;17.30;99.90;;;;;;5007309;28;20541;-91
2022/10/21 12:55:40;;;;;;;0.10;0.10;;;17.50;99.90;;;;;;4990596;28;20443;-89
2022/10/21 12:58:24;;;;;;;0.10;0.10;;;17.00;99.90;;;;;;5006863;28;20532;-85
2022/10/21 13:00:55;;;;;;;0.10;0.10;;;16.90;99.90;;;;;;4989036;28;20454;-87
2022/10/21 13:03:43;;;;;;;0.10;0.10;;;16.70;99.90;;;;;;4991343;28;20525;-89
2022/10/21 13:06:10;;;;;;;0.10;0.10;;;17.40;99.90;;;;;;5011738;28;20955;-96
2022/10/21 13:08:54;;;;;;;0.10;0.10;;;18.40;99.90;;;;;;4984420;28;20427;-88
2022/10/21 13:11:23;;;;;;;0.10;0.00;;;19.00;99.90;;;;;;5000316;28;20452;-87
2022/10/21 13:14:10;;;;;;;0.10;0.00;;;18.70;99.90;;;;;;5005363;28;20446;-88